createdAt,value
2019-04-04T00:02:05.104Z,12.63
2019-04-04T00:04:38.522Z,12.62
2019-04-04T00:07:12.503Z,12.61
2019-04-04T00:09:46.724Z,12.60
2019-04-04T00:12:20.453Z,12.60
2019-04-04T00:14:54.127Z,12.59
2019-04-04T00:17:27.488Z,12.60
2019-04-04T00:20:01.479Z,12.62
2019-04-04T00:22:35.827Z,12.64
2019-04-04T00:25:10.389Z,12.65
2019-04-04T00:27:43.942Z,12.64
2019-04-04T00:30:18.566Z,12.64
2019-04-04T00:32:52.783Z,12.66
2019-04-04T00:35:27.023Z,12.66
2019-04-04T00:38:00.234Z,12.64
2019-04-04T00:40:33.553Z,12.65
2019-04-04T00:43:06.275Z,12.66
2019-04-04T00:45:40.217Z,12.65
2019-04-04T00:48:13.715Z,12.67
2019-04-04T00:50:47.448Z,12.66
2019-04-04T00:53:20.920Z,12.64
2019-04-04T00:55:53.665Z,12.61
2019-04-04T00:58:26.999Z,12.62
2019-04-04T01:01:00.014Z,12.58
2019-04-04T01:03:33.823Z,12.57
2019-04-04T01:06:07.016Z,12.56
2019-04-04T01:08:40.478Z,12.55
2019-04-04T01:11:13.703Z,12.53
2019-04-04T01:13:46.970Z,12.51
2019-04-04T01:16:20.307Z,12.50
2019-04-04T01:18:54.590Z,12.50
2019-04-04T01:21:27.908Z,12.50
2019-04-04T01:24:01.683Z,12.52
2019-04-04T01:26:35.819Z,12.54
2019-04-04T01:29:11.041Z,12.54
2019-04-04T01:31:46.028Z,12.54
2019-04-04T01:34:21.434Z,12.53
2019-04-04T01:36:56.557Z,12.51
2019-04-04T01:39:31.217Z,12.52
2019-04-04T01:42:07.278Z,12.51
2019-04-04T01:44:42.288Z,12.50
2019-04-04T01:47:17.026Z,12.49
2019-04-04T01:49:52.435Z,12.47
2019-04-04T01:52:28.661Z,12.45
2019-04-04T01:55:03.405Z,12.42
2019-04-04T01:57:38.925Z,12.37
2019-04-04T02:00:15.135Z,12.35
2019-04-04T02:02:51.903Z,12.34
2019-04-04T02:05:26.823Z,12.32
2019-04-04T02:08:00.995Z,12.28
2019-04-04T02:10:35.725Z,12.28
2019-04-04T02:13:10.431Z,12.23
2019-04-04T02:15:45.326Z,12.19
2019-04-04T02:18:19.350Z,12.17
2019-04-04T02:20:53.166Z,12.17
2019-04-04T02:23:27.213Z,12.11
2019-04-04T02:26:04.849Z,12.12
2019-04-04T02:28:37.977Z,12.09
2019-04-04T02:31:12.151Z,12.10
2019-04-04T02:33:45.559Z,12.09
2019-04-04T02:36:19.339Z,12.06
2019-04-04T02:39:09.416Z,12.04
2019-04-04T02:41:47.527Z,12.01
2019-04-04T02:44:18.981Z,12.02
2019-04-04T02:46:52.195Z,12.02
2019-04-04T02:49:29.214Z,12.03
2019-04-04T02:52:01.314Z,11.99
2019-04-04T02:54:35.299Z,11.97
2019-04-04T02:57:09.626Z,11.96
2019-04-04T02:59:42.968Z,11.95
2019-04-04T03:02:17.050Z,11.93
2019-04-04T03:04:50.504Z,11.90
2019-04-04T03:07:24.637Z,11.91
2019-04-04T03:09:58.292Z,11.88
2019-04-04T03:12:32.146Z,11.90
2019-04-04T03:15:06.304Z,11.92
2019-04-04T03:17:41.629Z,11.91
2019-04-04T03:20:17.314Z,11.90
2019-04-04T03:22:50.412Z,11.89
2019-04-04T03:25:23.705Z,11.90
2019-04-04T03:27:58.244Z,11.90
2019-04-04T03:30:33.630Z,11.94
2019-04-04T03:33:07.925Z,11.95
2019-04-04T03:35:42.331Z,11.95
2019-04-04T03:38:15.627Z,11.95
2019-04-04T03:40:48.441Z,11.95
2019-04-04T03:43:22.223Z,11.93
2019-04-04T03:46:00.343Z,11.90
2019-04-04T03:48:31.923Z,11.90
2019-04-04T03:51:05.527Z,11.90
2019-04-04T03:53:41.806Z,11.92
2019-04-04T03:56:16.102Z,11.89
2019-04-04T03:58:50.211Z,11.90
2019-04-04T04:01:24.807Z,11.91
2019-04-04T04:03:58.410Z,11.91
2019-04-04T04:06:32.558Z,11.91
2019-04-04T04:09:07.385Z,11.89
2019-04-04T04:11:41.573Z,11.89
2019-04-04T04:14:15.547Z,11.89
2019-04-04T04:16:49.598Z,11.84
2019-04-04T04:19:24.435Z,11.84
2019-04-04T04:21:59.098Z,11.85
2019-04-04T04:24:32.901Z,11.83
2019-04-04T04:27:06.564Z,11.84
2019-04-04T04:29:39.854Z,11.83
2019-04-04T04:32:13.187Z,11.83
2019-04-04T04:34:46.956Z,11.82
2019-04-04T04:37:21.113Z,11.82
2019-04-04T04:39:55.281Z,11.79
2019-04-04T04:42:29.533Z,11.80
2019-04-04T04:45:03.650Z,11.81
2019-04-04T04:47:37.426Z,11.81
2019-04-04T04:50:11.434Z,11.82
2019-04-04T04:52:46.746Z,11.83
2019-04-04T04:55:20.304Z,11.85
2019-04-04T04:57:56.270Z,11.85
2019-04-04T05:00:30.175Z,11.87
2019-04-04T05:03:03.875Z,11.87
2019-04-04T05:05:38.065Z,11.89
2019-04-04T05:08:11.294Z,11.90
2019-04-04T05:10:45.916Z,11.92
2019-04-04T05:13:20.707Z,11.92
2019-04-04T05:15:55.117Z,11.94
2019-04-04T05:18:49.419Z,11.95
2019-04-04T05:21:25.572Z,11.95
2019-04-04T05:23:58.508Z,11.96
2019-04-04T05:26:34.234Z,11.97
2019-04-04T05:29:07.621Z,12.01
2019-04-04T05:31:41.349Z,12.01
2019-04-04T05:34:15.667Z,12.03
2019-04-04T05:36:49.749Z,12.05
2019-04-04T05:39:23.453Z,12.08
2019-04-04T05:41:58.090Z,12.11
2019-04-04T05:44:34.309Z,12.14
2019-04-04T05:47:07.771Z,12.14
2019-04-04T05:49:42.494Z,12.18
2019-04-04T05:52:16.325Z,12.20
2019-04-04T05:54:49.984Z,12.25
2019-04-04T05:57:23.257Z,12.28
2019-04-04T05:59:57.201Z,12.30
2019-04-04T06:02:30.805Z,12.33
2019-04-04T06:05:04.621Z,12.40
2019-04-04T06:07:37.448Z,12.46
2019-04-04T06:10:12.212Z,12.50
2019-04-04T06:12:45.735Z,12.55
2019-04-04T06:15:18.947Z,12.61
2019-04-04T06:17:52.945Z,12.66
2019-04-04T06:20:27.073Z,12.72
2019-04-04T06:23:01.240Z,12.76
2019-04-04T06:25:35.913Z,12.85
2019-04-04T06:28:12.016Z,12.89
2019-04-04T06:30:45.497Z,12.97
2019-04-04T06:33:19.228Z,13.01
2019-04-04T06:35:52.528Z,13.07
2019-04-04T06:38:26.774Z,13.16
2019-04-04T06:41:00.868Z,13.25
2019-04-04T06:43:35.893Z,13.33
2019-04-04T06:46:09.754Z,13.42
2019-04-04T06:48:43.940Z,13.52
2019-04-04T06:51:17.559Z,13.60
2019-04-04T06:53:53.699Z,13.69
2019-04-04T06:56:26.781Z,13.76
2019-04-04T06:59:00.573Z,13.84
2019-04-04T07:01:34.302Z,13.92
2019-04-04T07:04:07.910Z,14.01
2019-04-04T07:06:42.488Z,14.09
2019-04-04T07:09:18.990Z,14.18
2019-04-04T07:11:52.500Z,14.26
2019-04-04T07:14:30.025Z,14.34
2019-04-04T07:17:01.864Z,14.46
2019-04-04T07:19:34.472Z,14.59
2019-04-04T07:22:08.099Z,14.68
2019-04-04T07:24:41.057Z,14.78
2019-04-04T07:27:16.200Z,14.87
2019-04-04T07:29:49.861Z,14.96
2019-04-04T07:32:22.414Z,15.05
2019-04-04T07:34:56.052Z,15.12
2019-04-04T07:37:30.797Z,15.19
2019-04-04T07:40:04.534Z,15.24
2019-04-04T07:42:40.050Z,15.33
2019-04-04T07:45:14.222Z,15.39
2019-04-04T07:47:47.482Z,15.47
2019-04-04T07:50:20.809Z,15.52
2019-04-04T07:52:52.803Z,15.58
2019-04-04T07:55:24.837Z,15.63
2019-04-04T07:57:58.296Z,15.69
2019-04-04T08:00:32.422Z,15.75
2019-04-04T08:03:05.663Z,15.83
2019-04-04T08:05:39.458Z,15.88
2019-04-04T08:08:12.308Z,15.95
2019-04-04T08:10:45.664Z,16.03
2019-04-04T08:13:17.985Z,16.09
2019-04-04T08:15:51.754Z,16.15
2019-04-04T08:18:24.230Z,16.22
2019-04-04T08:20:57.599Z,16.27
2019-04-04T08:23:30.349Z,16.34
2019-04-04T08:26:03.230Z,16.41
2019-04-04T08:28:36.868Z,16.46
2019-04-04T08:31:10.982Z,16.51
2019-04-04T08:33:44.679Z,16.57
2019-04-04T08:36:18.663Z,16.61
2019-04-04T08:38:52.701Z,16.67
2019-04-04T08:41:26.384Z,16.74
2019-04-04T08:44:00.591Z,16.81
2019-04-04T08:46:33.733Z,16.87
2019-04-04T08:49:06.989Z,16.93
2019-04-04T08:51:41.118Z,16.99
2019-04-04T08:54:15.306Z,17.06
2019-04-04T08:56:49.353Z,17.14
2019-04-04T08:59:23.561Z,17.20
2019-04-04T09:01:57.451Z,17.26
2019-04-04T09:04:31.560Z,17.32
2019-04-04T09:07:05.187Z,17.37
2019-04-04T09:09:39.389Z,17.41
2019-04-04T09:12:13.183Z,17.44
2019-04-04T09:14:46.814Z,17.50
2019-04-04T09:17:20.446Z,17.56
2019-04-04T09:19:54.530Z,17.62
2019-04-04T09:22:27.868Z,17.69
2019-04-04T09:25:01.567Z,17.72
2019-04-04T09:27:36.047Z,17.76
2019-04-04T09:30:10.156Z,17.80
2019-04-04T09:32:44.278Z,17.85
2019-04-04T09:35:18.698Z,17.89
2019-04-04T09:37:52.683Z,17.92
2019-04-04T09:40:26.390Z,17.99
2019-04-04T09:43:00.126Z,18.05
2019-04-04T09:45:35.522Z,18.09
2019-04-04T09:48:09.870Z,18.14
2019-04-04T09:50:48.886Z,18.20
2019-04-04T09:53:22.513Z,18.27
2019-04-04T09:55:55.289Z,18.34
2019-04-04T09:58:28.477Z,18.41
2019-04-04T10:01:02.194Z,18.49
2019-04-04T10:03:36.305Z,18.54
2019-04-04T10:06:10.519Z,18.58
2019-04-04T10:08:43.612Z,18.62
2019-04-04T10:11:17.607Z,18.68
2019-04-04T10:13:50.078Z,18.75
2019-04-04T10:16:23.032Z,18.80
2019-04-04T10:18:57.171Z,18.87
2019-04-04T10:21:33.432Z,18.94
2019-04-04T10:24:09.438Z,19.04
2019-04-04T10:26:41.861Z,19.15
2019-04-04T10:29:13.823Z,19.26
2019-04-04T10:31:46.772Z,19.34
2019-04-04T10:34:18.781Z,19.40
2019-04-04T10:36:51.132Z,19.49
2019-04-04T10:39:29.415Z,19.51
2019-04-04T10:41:58.758Z,19.57
2019-04-04T10:44:30.860Z,19.63
2019-04-04T10:47:04.638Z,19.64
2019-04-04T10:49:37.659Z,19.62
2019-04-04T10:52:10.603Z,19.70
2019-04-04T10:54:42.991Z,19.79
2019-04-04T10:57:16.751Z,19.85
2019-04-04T10:59:50.190Z,19.92
2019-04-04T11:02:23.514Z,19.94
2019-04-04T11:04:55.965Z,20.03
2019-04-04T11:07:29.214Z,20.11
2019-04-04T11:10:01.653Z,20.23
2019-04-04T11:12:34.566Z,20.34
2019-04-04T11:15:07.299Z,20.43
2019-04-04T11:17:40.083Z,20.56
2019-04-04T11:20:12.914Z,20.60
2019-04-04T11:22:45.436Z,20.73
2019-04-04T11:25:17.474Z,20.81
2019-04-04T11:27:50.635Z,20.95
2019-04-04T11:30:23.891Z,21.00
2019-04-04T11:32:56.755Z,20.99
2019-04-04T11:35:29.657Z,21.15
2019-04-04T11:38:02.546Z,21.40
2019-04-04T11:40:35.483Z,21.64
2019-04-04T11:43:07.801Z,21.89
2019-04-04T11:45:40.742Z,22.15
2019-04-04T11:48:14.117Z,22.31
2019-04-04T11:50:46.969Z,22.55
2019-04-04T11:53:20.734Z,22.87
2019-04-04T11:55:54.160Z,23.14
2019-04-04T11:58:28.826Z,23.50
2019-04-04T12:01:02.820Z,23.78
2019-04-04T12:03:34.769Z,23.95
2019-04-04T12:06:07.591Z,24.35
2019-04-04T12:08:40.453Z,24.61
2019-04-04T12:11:13.876Z,25.04
2019-04-04T12:13:46.373Z,25.25
2019-04-04T12:16:19.795Z,25.22
2019-04-04T12:18:52.298Z,25.02
2019-04-04T12:21:25.613Z,25.15
2019-04-04T12:23:59.070Z,25.51
2019-04-04T12:26:31.350Z,25.83
2019-04-04T12:29:03.781Z,26.13
2019-04-04T12:31:36.645Z,26.39
2019-04-04T12:34:09.062Z,26.62
2019-04-04T12:36:42.075Z,26.63
2019-04-04T12:39:14.924Z,26.29
2019-04-04T12:41:47.873Z,26.17
2019-04-04T12:44:21.267Z,26.03
2019-04-04T12:46:53.788Z,26.37
2019-04-04T12:49:26.192Z,26.68
2019-04-04T12:51:59.205Z,26.82
2019-04-04T12:54:32.455Z,26.80
2019-04-04T12:57:04.944Z,26.44
2019-04-04T12:59:38.295Z,26.31
2019-04-04T13:02:11.630Z,26.21
2019-04-04T13:04:45.345Z,25.87
2019-04-04T13:07:17.730Z,25.56
2019-04-04T13:09:50.569Z,25.14
2019-04-04T13:12:23.819Z,24.83
2019-04-04T13:14:56.130Z,24.39
2019-04-04T13:17:29.042Z,24.17
2019-04-04T13:20:01.935Z,23.90
2019-04-04T13:22:35.563Z,24.05
2019-04-04T13:25:09.413Z,24.43
2019-04-04T13:27:41.807Z,24.92
2019-04-04T13:30:15.081Z,25.49
2019-04-04T13:32:48.542Z,25.60
2019-04-04T13:35:22.353Z,25.63
2019-04-04T13:37:54.748Z,25.94
2019-04-04T13:40:27.825Z,25.89
2019-04-04T13:42:59.805Z,25.66
2019-04-04T13:45:32.148Z,25.50
2019-04-04T13:48:05.292Z,25.25
2019-04-04T13:50:38.451Z,25.02
2019-04-04T13:53:12.538Z,24.68
2019-04-04T13:55:45.700Z,24.52
2019-04-04T13:58:21.888Z,24.63
2019-04-04T14:00:53.299Z,24.75
2019-04-04T14:03:27.331Z,24.69
2019-04-04T14:06:01.947Z,24.49
2019-04-04T14:08:39.252Z,24.34
2019-04-04T14:11:11.613Z,24.13
2019-04-04T14:13:44.405Z,23.90
2019-04-04T14:16:18.335Z,23.66
2019-04-04T14:18:51.906Z,23.46
2019-04-04T14:21:25.487Z,23.40
2019-04-04T14:24:12.087Z,23.22
2019-04-04T14:26:34.761Z,23.49
2019-04-04T14:29:08.777Z,23.92
2019-04-04T14:31:42.879Z,24.34
2019-04-04T14:34:16.490Z,24.37
2019-04-04T14:36:50.476Z,24.24
2019-04-04T14:39:24.507Z,24.59
2019-04-04T14:41:57.927Z,24.67
2019-04-04T14:44:31.917Z,24.71
2019-04-04T14:47:05.519Z,24.58
2019-04-04T14:49:39.692Z,24.68
2019-04-04T14:52:13.096Z,24.47
2019-04-04T14:54:47.019Z,24.19
2019-04-04T14:57:20.287Z,24.08
2019-04-04T14:59:53.662Z,24.11
2019-04-04T15:02:26.905Z,24.01
2019-04-04T15:05:00.670Z,23.90
2019-04-04T15:07:33.959Z,23.77
2019-04-04T15:10:08.684Z,23.69
2019-04-04T15:12:42.390Z,23.79
2019-04-04T15:15:16.610Z,23.69
2019-04-04T15:17:49.900Z,23.56
2019-04-04T15:20:24.227Z,23.39
2019-04-04T15:22:57.880Z,23.22
2019-04-04T15:25:31.390Z,23.07
2019-04-04T15:28:05.012Z,23.05
2019-04-04T15:30:38.211Z,22.98
2019-04-04T15:33:12.528Z,22.86
2019-04-04T15:35:45.786Z,22.76
2019-04-04T15:38:18.691Z,22.69
2019-04-04T15:40:51.943Z,22.60
2019-04-04T15:43:25.101Z,22.47
2019-04-04T15:45:57.579Z,22.35
2019-04-04T15:48:30.310Z,22.27
2019-04-04T15:51:04.241Z,22.41
2019-04-04T15:53:37.970Z,22.73
2019-04-04T15:56:12.150Z,23.15
2019-04-04T15:58:46.381Z,23.49
2019-04-04T16:01:20.418Z,23.81
2019-04-04T16:03:54.354Z,24.14
2019-04-04T16:06:28.550Z,24.44
2019-04-04T16:09:02.647Z,24.71
2019-04-04T16:11:48.520Z,24.90
2019-04-04T16:14:11.630Z,25.13
2019-04-04T16:16:45.806Z,25.29
2019-04-04T16:19:19.487Z,25.39
2019-04-04T16:21:53.605Z,25.54
2019-04-04T16:24:27.638Z,25.64
2019-04-04T16:27:01.337Z,25.61
2019-04-04T16:29:35.360Z,25.59
2019-04-04T16:32:08.521Z,25.55
2019-04-04T16:34:42.853Z,25.44
2019-04-04T16:37:16.419Z,25.36
2019-04-04T16:39:50.580Z,25.15
2019-04-04T16:42:24.204Z,24.87
2019-04-04T16:44:57.992Z,24.44
2019-04-04T16:47:32.121Z,24.08
2019-04-04T16:50:06.008Z,23.77
2019-04-04T16:52:39.992Z,23.45
2019-04-04T16:55:13.393Z,23.20
2019-04-04T16:57:47.066Z,22.97
2019-04-04T17:00:23.161Z,22.78
2019-04-04T17:02:55.965Z,22.58
2019-04-04T17:05:30.045Z,22.36
2019-04-04T17:08:04.201Z,22.18
2019-04-04T17:10:38.109Z,21.99
2019-04-04T17:13:11.380Z,21.78
2019-04-04T17:15:46.131Z,21.58
2019-04-04T17:18:20.211Z,21.38
2019-04-04T17:20:54.654Z,21.21
2019-04-04T17:23:28.777Z,21.03
2019-04-04T17:26:02.911Z,20.85
2019-04-04T17:28:36.693Z,20.69
2019-04-04T17:31:10.304Z,20.53
2019-04-04T17:33:44.637Z,20.34
2019-04-04T17:36:21.289Z,20.23
2019-04-04T17:38:55.046Z,20.09
2019-04-04T17:41:29.213Z,19.99
2019-04-04T17:44:03.422Z,19.86
2019-04-04T17:46:37.040Z,19.72
2019-04-04T17:49:10.594Z,19.62
2019-04-04T17:51:44.715Z,19.47
2019-04-04T17:54:17.562Z,19.37
2019-04-04T17:56:50.441Z,19.24
2019-04-04T17:59:22.886Z,19.13
2019-04-04T18:01:55.778Z,19.03
2019-04-04T18:04:28.683Z,18.92
2019-04-04T18:07:01.614Z,18.82
2019-04-04T18:09:34.441Z,18.75
2019-04-04T18:12:06.861Z,18.67
2019-04-04T18:14:39.638Z,18.60
2019-04-04T18:17:12.144Z,18.50
2019-04-04T18:19:44.529Z,18.43
2019-04-04T18:22:20.645Z,18.35
2019-04-04T18:24:51.766Z,18.30
2019-04-04T18:27:23.782Z,18.25
2019-04-04T18:29:56.244Z,18.18
2019-04-04T18:32:28.213Z,18.13
2019-04-04T18:35:01.366Z,18.07
2019-04-04T18:37:35.552Z,18.02
2019-04-04T18:40:09.192Z,17.97
2019-04-04T18:42:52.720Z,17.95
2019-04-04T18:45:16.015Z,17.91
2019-04-04T18:47:49.468Z,17.90
2019-04-04T18:50:22.022Z,17.90
2019-04-04T18:52:56.084Z,17.90
2019-04-04T18:55:30.319Z,17.91
2019-04-04T18:58:05.017Z,17.90
2019-04-04T19:00:37.628Z,17.91
2019-04-04T19:03:11.020Z,17.88
2019-04-04T19:05:43.881Z,17.88
2019-04-04T19:08:16.328Z,17.86
2019-04-04T19:10:49.374Z,17.86
2019-04-04T19:13:21.678Z,17.85
2019-04-04T19:15:54.520Z,17.84
2019-04-04T19:18:27.719Z,17.80
2019-04-04T19:21:00.161Z,17.79
2019-04-04T19:23:33.096Z,17.78
2019-04-04T19:26:06.205Z,17.77
2019-04-04T19:28:39.438Z,17.73
2019-04-04T19:31:12.750Z,17.71
2019-04-04T19:33:46.001Z,17.71
2019-04-04T19:36:18.005Z,17.71
2019-04-04T19:38:51.289Z,17.68
2019-04-04T19:41:23.753Z,17.66
2019-04-04T19:43:56.655Z,17.62
2019-04-04T19:46:36.899Z,17.61
2019-04-04T19:49:03.937Z,17.56
2019-04-04T19:51:35.878Z,17.54
2019-04-04T19:54:07.851Z,17.51
2019-04-04T19:56:39.915Z,17.48
2019-04-04T19:59:11.917Z,17.46
2019-04-04T20:01:44.276Z,17.44
2019-04-04T20:04:16.186Z,17.43
2019-04-04T20:06:49.251Z,17.39
2019-04-04T20:09:22.137Z,17.38
2019-04-04T20:11:55.049Z,17.33
2019-04-04T20:14:29.100Z,17.31
2019-04-04T20:17:01.721Z,17.29
2019-04-04T20:19:34.597Z,17.27
2019-04-04T20:22:08.434Z,17.21
2019-04-04T20:24:40.843Z,17.18
2019-04-04T20:27:14.446Z,17.14
2019-04-04T20:29:47.328Z,17.10
2019-04-04T20:32:19.818Z,17.10
2019-04-04T20:34:52.114Z,17.08
2019-04-04T20:37:24.588Z,17.08
2019-04-04T20:39:57.482Z,17.06
2019-04-04T20:42:29.792Z,17.05
2019-04-04T20:45:02.607Z,17.05
2019-04-04T20:47:35.433Z,17.06
2019-04-04T20:50:08.013Z,17.06
2019-04-04T20:52:40.411Z,17.04
2019-04-04T20:55:12.970Z,17.01
2019-04-04T20:57:46.358Z,17.03
2019-04-04T21:00:22.017Z,17.04
2019-04-04T21:02:56.003Z,17.02
2019-04-04T21:05:29.391Z,17.02
2019-04-04T21:08:02.811Z,17.00
2019-04-04T21:10:36.410Z,17.01
2019-04-04T21:13:09.991Z,17.00
2019-04-04T21:15:44.167Z,17.01
2019-04-04T21:18:18.262Z,16.99
2019-04-04T21:20:51.752Z,17.00
2019-04-04T21:23:25.329Z,16.99
2019-04-04T21:25:58.631Z,17.00
2019-04-04T21:28:32.325Z,17.00
2019-04-04T21:31:05.545Z,17.00
2019-04-04T21:33:39.498Z,17.00
2019-04-04T21:36:13.449Z,17.01
2019-04-04T21:38:47.309Z,17.00
2019-04-04T21:41:21.234Z,17.01
2019-04-04T21:44:07.749Z,17.00
2019-04-04T21:46:30.673Z,16.98
2019-04-04T21:49:04.114Z,16.93
2019-04-04T21:51:38.211Z,16.90
2019-04-04T21:54:12.299Z,16.88
2019-04-04T21:56:46.219Z,16.86
2019-04-04T21:59:19.847Z,16.84
2019-04-04T22:01:53.364Z,16.82
2019-04-04T22:04:26.668Z,16.80
2019-04-04T22:07:00.138Z,16.79
2019-04-04T22:09:34.555Z,16.77
2019-04-04T22:12:08.592Z,16.75
2019-04-04T22:14:42.196Z,16.73
2019-04-04T22:17:16.212Z,16.72
2019-04-04T22:19:50.439Z,16.72
2019-04-04T22:22:24.709Z,16.70
2019-04-04T22:24:59.153Z,16.70
2019-04-04T22:27:32.780Z,16.66
2019-04-04T22:30:07.023Z,16.62
2019-04-04T22:32:40.993Z,16.59
2019-04-04T22:35:14.373Z,16.59
2019-04-04T22:37:47.439Z,16.56
2019-04-04T22:40:20.560Z,16.55
2019-04-04T22:42:54.061Z,16.54
2019-04-04T22:45:28.105Z,16.53
2019-04-04T22:48:02.120Z,16.50
2019-04-04T22:50:35.900Z,16.47
2019-04-04T22:53:09.491Z,16.47
2019-04-04T22:55:43.336Z,16.45
2019-04-04T22:58:27.616Z,16.45
2019-04-04T23:00:52.424Z,16.44
2019-04-04T23:03:27.212Z,16.42
2019-04-04T23:06:00.881Z,16.40
2019-04-04T23:08:34.383Z,16.36
2019-04-04T23:11:08.512Z,16.34
2019-04-04T23:13:42.436Z,16.33
2019-04-04T23:16:16.162Z,16.32
2019-04-04T23:18:50.184Z,16.31
2019-04-04T23:21:23.224Z,16.28
2019-04-04T23:23:57.327Z,16.26
2019-04-04T23:26:31.112Z,16.28
2019-04-04T23:29:04.680Z,16.25
2019-04-04T23:31:38.957Z,16.27
2019-04-04T23:34:12.604Z,16.27
2019-04-04T23:36:46.191Z,16.29
2019-04-04T23:39:19.944Z,16.30
2019-04-04T23:41:53.969Z,16.30
2019-04-04T23:44:28.002Z,16.26
2019-04-04T23:47:01.808Z,16.24
2019-04-04T23:49:35.363Z,16.21
2019-04-04T23:52:09.513Z,16.18
2019-04-04T23:54:43.629Z,16.13
2019-04-04T23:57:17.871Z,16.06
2019-04-04T23:59:51.754Z,16.02
